sensor_id;sensor_type;location;lat;lon;timestamp;pressure;altitude;pressure_sealevel;temperature;humidity
47753;BME280;2038;51.728;6.674;2023-04-09T00:00:01;101921.91;;;9.53;100.00
47753;BME280;2038;51.728;6.674;2023-04-09T00:02:28;101921.50;;;9.48;100.00
47753;BME280;2038;51.728;6.674;2023-04-09T00:04:54;101923.50;;;9.42;100.00
47753;BME280;2038;51.728;6.674;2023-04-09T00:07:20;101927.56;;;9.40;100.00
47753;BME280;2038;51.728;6.674;2023-04-09T00:09:47;101927.78;;;9.33;100.00
47753;BME280;2038;51.728;6.674;2023-04-09T00:12:13;101927.84;;;9.24;100.00
47753;BME280;2038;51.728;6.674;2023-04-09T00:14:39;101923.91;;;9.28;100.00
47753;BME280;2038;51.728;6.674;2023-04-09T00:17:05;101918.72;;;9.26;100.00
47753;BME280;2038;51.728;6.674;2023-04-09T00:19:31;101921.25;;;9.26;100.00
47753;BME280;2038;51.728;6.674;2023-04-09T00:21:58;101925.88;;;9.30;100.00
47753;BME280;2038;51.728;6.674;2023-04-09T00:24:24;101925.31;;;9.24;100.00
47753;BME280;2038;51.728;6.674;2023-04-09T00:26:50;101920.56;;;9.19;100.00
47753;BME280;2038;51.728;6.674;2023-04-09T00:29:18;101915.09;;;9.14;100.00
47753;BME280;2038;51.728;6.674;2023-04-09T00:31:44;101913.03;;;9.10;100.00
47753;BME280;2038;51.728;6.674;2023-04-09T00:34:10;101914.03;;;9.12;100.00
47753;BME280;2038;51.728;6.674;2023-04-09T00:36:36;101909.44;;;9.08;100.00
47753;BME280;2038;51.728;6.674;2023-04-09T00:39:03;101912.59;;;9.06;100.00
47753;BME280;2038;51.728;6.674;2023-04-09T00:41:29;101907.25;;;9.03;100.00
47753;BME280;2038;51.728;6.674;2023-04-09T00:43:55;101908.75;;;9.01;100.00
47753;BME280;2038;51.728;6.674;2023-04-09T00:46:22;101910.13;;;8.97;100.00
47753;BME280;2038;51.728;6.674;2023-04-09T00:48:48;101908.69;;;8.90;100.00
47753;BME280;2038;51.728;6.674;2023-04-09T00:51:15;101910.94;;;8.87;100.00
47753;BME280;2038;51.728;6.674;2023-04-09T00:53:41;101900.75;;;8.87;100.00
47753;BME280;2038;51.728;6.674;2023-04-09T00:56:09;101899.75;;;8.85;100.00
47753;BME280;2038;51.728;6.674;2023-04-09T00:58:37;101904.09;;;8.86;100.00
47753;BME280;2038;51.728;6.674;2023-04-09T01:01:05;101898.69;;;8.83;100.00
47753;BME280;2038;51.728;6.674;2023-04-09T01:03:32;101899.13;;;8.69;100.00
47753;BME280;2038;51.728;6.674;2023-04-09T01:06:41;101895.41;;;8.66;100.00
47753;BME280;2038;51.728;6.674;2023-04-09T01:09:20;101899.84;;;8.50;100.00
47753;BME280;2038;51.728;6.674;2023-04-09T01:12:11;101891.31;;;8.49;100.00
47753;BME280;2038;51.728;6.674;2023-04-09T01:15:09;101891.84;;;8.36;100.00
47753;BME280;2038;51.728;6.674;2023-04-09T01:17:40;101884.69;;;8.32;100.00
47753;BME280;2038;51.728;6.674;2023-04-09T01:20:19;101875.72;;;8.27;100.00
47753;BME280;2038;51.728;6.674;2023-04-09T01:23:22;101882.16;;;8.24;100.00
47753;BME280;2038;51.728;6.674;2023-04-09T01:26:37;101879.75;;;8.34;100.00
47753;BME280;2038;51.728;6.674;2023-04-09T01:29:15;101886.00;;;8.37;100.00
47753;BME280;2038;51.728;6.674;2023-04-09T01:31:45;101890.19;;;8.37;100.00
47753;BME280;2038;51.728;6.674;2023-04-09T01:34:13;101891.72;;;8.26;100.00
47753;BME280;2038;51.728;6.674;2023-04-09T01:36:47;101885.91;;;8.19;100.00
47753;BME280;2038;51.728;6.674;2023-04-09T01:39:17;101889.03;;;8.25;100.00
47753;BME280;2038;51.728;6.674;2023-04-09T01:41:45;101889.97;;;8.17;100.00
47753;BME280;2038;51.728;6.674;2023-04-09T01:44:12;101879.53;;;8.14;100.00
47753;BME280;2038;51.728;6.674;2023-04-09T01:46:40;101877.44;;;8.18;100.00
47753;BME280;2038;51.728;6.674;2023-04-09T01:49:08;101876.56;;;8.09;100.00
47753;BME280;2038;51.728;6.674;2023-04-09T01:51:36;101875.84;;;8.02;100.00
47753;BME280;2038;51.728;6.674;2023-04-09T01:54:04;101874.34;;;8.04;100.00
47753;BME280;2038;51.728;6.674;2023-04-09T01:56:59;101879.16;;;7.92;100.00
47753;BME280;2038;51.728;6.674;2023-04-09T01:59:25;101877.06;;;7.96;100.00
47753;BME280;2038;51.728;6.674;2023-04-09T02:02:08;101875.97;;;8.03;100.00
47753;BME280;2038;51.728;6.674;2023-04-09T02:04:45;101880.91;;;8.10;100.00
47753;BME280;2038;51.728;6.674;2023-04-09T02:07:43;101882.69;;;8.02;100.00
47753;BME280;2038;51.728;6.674;2023-04-09T02:10:12;101880.94;;;8.02;100.00
47753;BME280;2038;51.728;6.674;2023-04-09T02:12:46;101873.63;;;7.96;100.00
47753;BME280;2038;51.728;6.674;2023-04-09T02:15:16;101878.44;;;7.93;100.00
47753;BME280;2038;51.728;6.674;2023-04-09T02:17:43;101879.16;;;7.92;100.00
47753;BME280;2038;51.728;6.674;2023-04-09T02:20:10;101876.06;;;7.86;100.00
47753;BME280;2038;51.728;6.674;2023-04-09T02:22:37;101872.94;;;7.80;100.00
47753;BME280;2038;51.728;6.674;2023-04-09T02:25:04;101873.66;;;7.87;100.00
47753;BME280;2038;51.728;6.674;2023-04-09T02:27:31;101873.09;;;7.81;100.00
47753;BME280;2038;51.728;6.674;2023-04-09T02:29:57;101874.31;;;7.76;100.00
47753;BME280;2038;51.728;6.674;2023-04-09T02:32:22;101868.78;;;7.72;100.00
47753;BME280;2038;51.728;6.674;2023-04-09T02:34:48;101867.44;;;7.75;100.00
47753;BME280;2038;51.728;6.674;2023-04-09T02:37:14;101868.22;;;7.66;100.00
47753;BME280;2038;51.728;6.674;2023-04-09T02:39:40;101864.50;;;7.62;100.00
47753;BME280;2038;51.728;6.674;2023-04-09T02:42:06;101859.13;;;7.59;100.00
47753;BME280;2038;51.728;6.674;2023-04-09T02:44:32;101857.03;;;7.55;100.00
47753;BME280;2038;51.728;6.674;2023-04-09T02:46:58;101854.22;;;7.52;100.00
47753;BME280;2038;51.728;6.674;2023-04-09T02:49:24;101851.25;;;7.47;100.00
47753;BME280;2038;51.728;6.674;2023-04-09T02:51:51;101852.00;;;7.46;100.00
47753;BME280;2038;51.728;6.674;2023-04-09T02:54:16;101846.50;;;7.42;100.00
47753;BME280;2038;51.728;6.674;2023-04-09T02:56:42;101849.44;;;7.46;100.00
47753;BME280;2038;51.728;6.674;2023-04-09T02:59:08;101844.25;;;7.45;100.00
47753;BME280;2038;51.728;6.674;2023-04-09T03:01:34;101853.06;;;7.40;100.00
47753;BME280;2038;51.728;6.674;2023-04-09T03:04:01;101840.56;;;7.33;100.00
47753;BME280;2038;51.728;6.674;2023-04-09T03:06:27;101841.44;;;7.33;100.00
47753;BME280;2038;51.728;6.674;2023-04-09T03:08:52;101843.38;;;7.36;100.00
47753;BME280;2038;51.728;6.674;2023-04-09T03:11:19;101846.66;;;7.35;100.00
47753;BME280;2038;51.728;6.674;2023-04-09T03:13:44;101837.28;;;7.25;100.00
47753;BME280;2038;51.728;6.674;2023-04-09T03:16:10;101835.94;;;7.20;100.00
47753;BME280;2038;51.728;6.674;2023-04-09T03:18:36;101835.94;;;7.20;100.00
47753;BME280;2038;51.728;6.674;2023-04-09T03:21:06;101842.50;;;7.18;100.00
47753;BME280;2038;51.728;6.674;2023-04-09T03:23:33;101835.94;;;7.20;100.00
47753;BME280;2038;51.728;6.674;2023-04-09T03:26:04;101832.69;;;7.13;100.00
47753;BME280;2038;51.728;6.674;2023-04-09T03:28:31;101831.22;;;7.06;100.00
47753;BME280;2038;51.728;6.674;2023-04-09T03:30:57;101833.28;;;7.10;100.00
47753;BME280;2038;51.728;6.674;2023-04-09T03:33:24;101833.75;;;7.06;100.00
47753;BME280;2038;51.728;6.674;2023-04-09T03:35:52;101833.75;;;7.06;100.00
47753;BME280;2038;51.728;6.674;2023-04-09T03:38:18;101831.06;;;7.04;100.00
47753;BME280;2038;51.728;6.674;2023-04-09T03:40:44;101834.66;;;6.98;100.00
47753;BME280;2038;51.728;6.674;2023-04-09T03:43:10;101829.13;;;6.93;100.00
47753;BME280;2038;51.728;6.674;2023-04-09T03:45:36;101831.66;;;6.93;100.00
47753;BME280;2038;51.728;6.674;2023-04-09T03:48:02;101829.13;;;6.93;100.00
47753;BME280;2038;51.728;6.674;2023-04-09T03:50:28;101829.13;;;6.93;100.00
47753;BME280;2038;51.728;6.674;2023-04-09T03:52:54;101827.78;;;6.97;100.00
47753;BME280;2038;51.728;6.674;2023-04-09T03:55:20;101826.72;;;6.95;100.00
47753;BME280;2038;51.728;6.674;2023-04-09T03:57:46;101826.44;;;6.92;100.00
47753;BME280;2038;51.728;6.674;2023-04-09T04:00:12;101834.03;;;6.92;100.00
47753;BME280;2038;51.728;6.674;2023-04-09T04:02:37;101835.38;;;6.80;100.00
47753;BME280;2038;51.728;6.674;2023-04-09T04:05:04;101834.66;;;6.81;100.00
47753;BME280;2038;51.728;6.674;2023-04-09T04:07:31;101837.75;;;6.78;100.00
47753;BME280;2038;51.728;6.674;2023-04-09T04:09:57;101833.28;;;6.76;100.00
47753;BME280;2038;51.728;6.674;2023-04-09T04:12:23;101836.56;;;6.66;100.00
47753;BME280;2038;51.728;6.674;2023-04-09T04:14:49;101838.06;;;6.64;100.00
47753;BME280;2038;51.728;6.674;2023-04-09T04:17:15;101833.44;;;6.69;100.00
47753;BME280;2038;51.728;6.674;2023-04-09T04:19:41;101837.00;;;6.71;100.00
47753;BME280;2038;51.728;6.674;2023-04-09T04:22:07;101832.38;;;6.67;100.00
47753;BME280;2038;51.728;6.674;2023-04-09T04:24:33;101838.06;;;6.64;100.00
47753;BME280;2038;51.728;6.674;2023-04-09T04:26:59;101837.16;;;6.55;100.00
47753;BME280;2038;51.728;6.674;2023-04-09T04:29:27;101834.63;;;6.55;100.00
47753;BME280;2038;51.728;6.674;2023-04-09T04:31:53;101834.50;;;6.53;100.00
47753;BME280;2038;51.728;6.674;2023-04-09T04:34:19;101833.88;;;6.47;100.00
47753;BME280;2038;51.728;6.674;2023-04-09T04:36:45;101836.56;;;6.49;100.00
47753;BME280;2038;51.728;6.674;2023-04-09T04:39:11;101835.38;;;6.45;100.00
47753;BME280;2038;51.728;6.674;2023-04-09T04:41:38;101839.53;;;6.45;100.00
47753;BME280;2038;51.728;6.674;2023-04-09T04:44:04;101838.63;;;6.44;100.00
47753;BME280;2038;51.728;6.674;2023-04-09T04:46:30;101844.44;;;6.43;100.00
47753;BME280;2038;51.728;6.674;2023-04-09T04:48:56;101842.81;;;6.44;100.00
47753;BME280;2038;51.728;6.674;2023-04-09T04:51:22;101843.50;;;6.34;100.00
47753;BME280;2038;51.728;6.674;2023-04-09T04:53:49;101838.00;;;6.38;100.00
47753;BME280;2038;51.728;6.674;2023-04-09T04:56:15;101846.22;;;6.36;100.00
47753;BME280;2038;51.728;6.674;2023-04-09T04:58:42;101841.00;;;6.26;100.00
47753;BME280;2038;51.728;6.674;2023-04-09T05:01:08;101841.13;;;6.27;100.00
47753;BME280;2038;51.728;6.674;2023-04-09T05:03:34;101840.97;;;6.34;100.00
47753;BME280;2038;51.728;6.674;2023-04-09T05:06:00;101844.13;;;6.32;100.00
47753;BME280;2038;51.728;6.674;2023-04-09T05:08:27;101847.13;;;6.36;100.00
47753;BME280;2038;51.728;6.674;2023-04-09T05:10:53;101849.81;;;6.38;100.00
47753;BME280;2038;51.728;6.674;2023-04-09T05:13:21;101846.94;;;6.35;100.00
47753;BME280;2038;51.728;6.674;2023-04-09T05:15:48;101851.75;;;6.40;100.00
47753;BME280;2038;51.728;6.674;2023-04-09T05:18:14;101845.78;;;6.40;100.00
47753;BME280;2038;51.728;6.674;2023-04-09T05:20:40;101842.50;;;6.41;100.00
47753;BME280;2038;51.728;6.674;2023-04-09T05:23:06;101847.56;;;6.41;100.00
47753;BME280;2038;51.728;6.674;2023-04-09T05:25:35;101840.88;;;6.41;100.00
47753;BME280;2038;51.728;6.674;2023-04-09T05:28:01;101841.47;;;6.47;100.00
47753;BME280;2038;51.728;6.674;2023-04-09T05:30:27;101841.63;;;6.57;100.00
47753;BME280;2038;51.728;6.674;2023-04-09T05:32:53;101846.09;;;6.60;100.00
47753;BME280;2038;51.728;6.674;2023-04-09T05:35:20;101842.97;;;6.63;100.00
47753;BME280;2038;51.728;6.674;2023-04-09T05:37:46;101843.88;;;6.63;100.00
47753;BME280;2038;51.728;6.674;2023-04-09T05:40:12;101842.22;;;6.64;100.00
47753;BME280;2038;51.728;6.674;2023-04-09T05:42:39;101848.03;;;6.71;100.00
47753;BME280;2038;51.728;6.674;2023-04-09T05:45:06;101844.94;;;6.74;100.00
47753;BME280;2038;51.728;6.674;2023-04-09T05:47:33;101846.84;;;6.76;100.00
47753;BME280;2038;51.728;6.674;2023-04-09T05:50:00;101845.34;;;6.78;100.00
47753;BME280;2038;51.728;6.674;2023-04-09T05:52:26;101844.50;;;6.78;100.00
47753;BME280;2038;51.728;6.674;2023-04-09T05:54:53;101847.88;;;6.78;100.00
47753;BME280;2038;51.728;6.674;2023-04-09T05:57:19;101841.94;;;6.95;100.00
47753;BME280;2038;51.728;6.674;2023-04-09T05:59:45;101841.34;;;6.89;100.00
47753;BME280;2038;51.728;6.674;2023-04-09T06:02:11;101841.34;;;6.89;100.00
47753;BME280;2038;51.728;6.674;2023-04-09T06:04:38;101841.34;;;6.89;100.00
47753;BME280;2038;51.728;6.674;2023-04-09T06:07:04;101838.53;;;6.86;100.00
47753;BME280;2038;51.728;6.674;2023-04-09T06:09:30;101840.16;;;6.94;100.00
47753;BME280;2038;51.728;6.674;2023-04-09T06:11:56;101839.28;;;6.93;100.00
47753;BME280;2038;51.728;6.674;2023-04-09T06:14:22;101838.22;;;6.91;100.00
47753;BME280;2038;51.728;6.674;2023-04-09T06:16:49;101839.72;;;6.98;100.00
47753;BME280;2038;51.728;6.674;2023-04-09T06:19:15;101844.78;;;6.98;100.00
47753;BME280;2038;51.728;6.674;2023-04-09T06:21:42;101844.75;;;7.15;100.00
47753;BME280;2038;51.728;6.674;2023-04-09T06:24:08;101838.78;;;7.23;100.00
47753;BME280;2038;51.728;6.674;2023-04-09T06:26:35;101846.63;;;7.43;100.00
47753;BME280;2038;51.728;6.674;2023-04-09T06:29:01;101846.78;;;7.53;100.00
47753;BME280;2038;51.728;6.674;2023-04-09T06:31:28;101850.47;;;7.66;100.00
47753;BME280;2038;51.728;6.674;2023-04-09T06:33:54;101848.19;;;7.77;100.00
47753;BME280;2038;51.728;6.674;2023-04-09T06:36:20;101845.66;;;7.77;100.00
47753;BME280;2038;51.728;6.674;2023-04-09T06:38:46;101845.94;;;7.72;100.00
47753;BME280;2038;51.728;6.674;2023-04-09T06:41:13;101849.34;;;7.81;100.00
47753;BME280;2038;51.728;6.674;2023-04-09T06:43:39;101849.75;;;7.94;100.00
47753;BME280;2038;51.728;6.674;2023-04-09T06:46:05;101858.47;;;7.79;100.00
47753;BME280;2038;51.728;6.674;2023-04-09T06:48:32;101855.44;;;7.83;100.00
47753;BME280;2038;51.728;6.674;2023-04-09T06:50:59;101855.13;;;7.97;100.00
47753;BME280;2038;51.728;6.674;2023-04-09T06:53:25;101866.28;;;7.99;100.00
47753;BME280;2038;51.728;6.674;2023-04-09T06:55:51;101859.09;;;8.04;100.00
47753;BME280;2038;51.728;6.674;2023-04-09T06:58:18;101861.84;;;8.24;100.00
47753;BME280;2038;51.728;6.674;2023-04-09T07:00:45;101861.50;;;8.38;100.00
47753;BME280;2038;51.728;6.674;2023-04-09T07:03:13;101860.22;;;8.52;100.00
47753;BME280;2038;51.728;6.674;2023-04-09T07:05:39;101862.16;;;8.54;100.00
47753;BME280;2038;51.728;6.674;2023-04-09T07:08:05;101869.22;;;8.67;100.00
47753;BME280;2038;51.728;6.674;2023-04-09T07:10:32;101869.56;;;8.80;100.00
47753;BME280;2038;51.728;6.674;2023-04-09T07:12:58;101873.69;;;8.88;100.00
47753;BME280;2038;51.728;6.674;2023-04-09T07:15:24;101874.31;;;9.04;100.00
47753;BME280;2038;51.728;6.674;2023-04-09T07:17:50;101866.06;;;9.07;100.00
47753;BME280;2038;51.728;6.674;2023-04-09T07:20:16;101870.72;;;9.21;100.00
47753;BME280;2038;51.728;6.674;2023-04-09T07:22:43;101870.09;;;9.23;100.00
47753;BME280;2038;51.728;6.674;2023-04-09T07:25:09;101873.31;;;9.31;100.00
47753;BME280;2038;51.728;6.674;2023-04-09T07:27:35;101870.50;;;9.47;100.00
47753;BME280;2038;51.728;6.674;2023-04-09T07:30:02;101872.78;;;9.54;100.00
47753;BME280;2038;51.728;6.674;2023-04-09T07:32:28;101872.56;;;9.61;100.00
47753;BME280;2038;51.728;6.674;2023-04-09T07:34:55;101875.09;;;9.61;100.00
47753;BME280;2038;51.728;6.674;2023-04-09T07:37:22;101878.31;;;9.68;100.00
47753;BME280;2038;51.728;6.674;2023-04-09T07:39:49;101876.81;;;9.70;100.00
47753;BME280;2038;51.728;6.674;2023-04-09T07:42:16;101873.53;;;9.81;100.00
47753;BME280;2038;51.728;6.674;2023-04-09T07:44:42;101878.03;;;9.94;100.00
47753;BME280;2038;51.728;6.674;2023-04-09T07:47:09;101872.66;;;9.91;100.00
47753;BME280;2038;51.728;6.674;2023-04-09T07:49:36;101880.84;;;10.07;100.00
47753;BME280;2038;51.728;6.674;2023-04-09T07:52:03;101883.66;;;10.10;100.00
47753;BME280;2038;51.728;6.674;2023-04-09T07:54:30;101878.63;;;10.30;100.00
47753;BME280;2038;51.728;6.674;2023-04-09T07:56:57;101884.88;;;10.44;100.00
47753;BME280;2038;51.728;6.674;2023-04-09T07:59:24;101881.31;;;10.52;100.00
47753;BME280;2038;51.728;6.674;2023-04-09T08:01:52;101881.72;;;10.67;100.00
47753;BME280;2038;51.728;6.674;2023-04-09T08:04:19;101880.53;;;10.73;100.00
47753;BME280;2038;51.728;6.674;2023-04-09T08:06:45;101883.47;;;10.78;100.00
47753;BME280;2038;51.728;6.674;2023-04-09T08:09:15;101877.59;;;10.89;99.77
47753;BME280;2038;51.728;6.674;2023-04-09T08:11:42;101879.72;;;11.05;98.60
47753;BME280;2038;51.728;6.674;2023-04-09T08:14:13;101878.56;;;11.11;98.04
47753;BME280;2038;51.728;6.674;2023-04-09T08:16:42;101874.19;;;11.20;96.20
47753;BME280;2038;51.728;6.674;2023-04-09T08:19:11;101867.44;;;11.21;95.13
47753;BME280;2038;51.728;6.674;2023-04-09T08:21:38;101877.25;;;11.26;96.60
47753;BME280;2038;51.728;6.674;2023-04-09T08:24:11;101884.78;;;11.25;94.25
47753;BME280;2038;51.728;6.674;2023-04-09T08:26:38;101884.72;;;11.45;95.96
47753;BME280;2038;51.728;6.674;2023-04-09T08:29:05;101885.13;;;11.40;93.51
47753;BME280;2038;51.728;6.674;2023-04-09T08:31:32;101877.81;;;11.44;93.83
47753;BME280;2038;51.728;6.674;2023-04-09T08:33:58;101885.69;;;11.57;95.26
47753;BME280;2038;51.728;6.674;2023-04-09T08:36:25;101882.84;;;11.64;94.92
47753;BME280;2038;51.728;6.674;2023-04-09T08:38:52;101884.25;;;11.71;95.35
47753;BME280;2038;51.728;6.674;2023-04-09T08:41:22;101880.16;;;11.73;95.88
47753;BME280;2038;51.728;6.674;2023-04-09T08:43:51;101888.31;;;11.79;93.85
47753;BME280;2038;51.728;6.674;2023-04-09T08:46:21;101887.88;;;11.95;95.00
47753;BME280;2038;51.728;6.674;2023-04-09T08:48:49;101892.13;;;12.06;93.77
47753;BME280;2038;51.728;6.674;2023-04-09T08:51:19;101891.00;;;12.02;93.20
47753;BME280;2038;51.728;6.674;2023-04-09T08:53:51;101889.97;;;12.00;93.44
47753;BME280;2038;51.728;6.674;2023-04-09T08:56:22;101892.44;;;11.99;92.58
47753;BME280;2038;51.728;6.674;2023-04-09T08:58:48;101885.53;;;11.98;92.21
47753;BME280;2038;51.728;6.674;2023-04-09T09:01:26;101883.34;;;12.02;94.24
47753;BME280;2038;51.728;6.674;2023-04-09T09:06:32;101878.06;;;12.11;93.75
47753;BME280;2038;51.728;6.674;2023-04-09T09:09:11;101870.97;;;12.18;93.55
47753;BME280;2038;51.728;6.674;2023-04-09T09:11:44;101871.69;;;12.28;93.16
47753;BME280;2038;51.728;6.674;2023-04-09T09:14:14;101874.59;;;12.44;93.68
47753;BME280;2038;51.728;6.674;2023-04-09T09:17:04;101872.75;;;12.53;90.46
47753;BME280;2038;51.728;6.674;2023-04-09T09:19:31;101873.56;;;12.63;88.39
47753;BME280;2038;51.728;6.674;2023-04-09T09:22:05;101874.91;;;12.70;88.45
47753;BME280;2038;51.728;6.674;2023-04-09T09:24:33;101873.03;;;12.79;88.98
47753;BME280;2038;51.728;6.674;2023-04-09T09:27:10;101866.69;;;12.86;88.28
47753;BME280;2038;51.728;6.674;2023-04-09T09:29:41;101857.22;;;12.85;87.96
47753;BME280;2038;51.728;6.674;2023-04-09T09:32:12;101851.56;;;12.89;88.17
47753;BME280;2038;51.728;6.674;2023-04-09T09:34:39;101841.66;;;12.93;88.31
47753;BME280;2038;51.728;6.674;2023-04-09T09:37:25;101850.78;;;12.90;87.66
47753;BME280;2038;51.728;6.674;2023-04-09T09:39:53;101843.66;;;12.97;84.63
47753;BME280;2038;51.728;6.674;2023-04-09T09:42:19;101848.38;;;13.15;84.43
47753;BME280;2038;51.728;6.674;2023-04-09T09:44:46;101847.91;;;13.08;84.70
47753;BME280;2038;51.728;6.674;2023-04-09T09:47:13;101838.00;;;13.01;85.34
47753;BME280;2038;51.728;6.674;2023-04-09T09:49:42;101836.53;;;13.05;84.40
47753;BME280;2038;51.728;6.674;2023-04-09T09:52:10;101840.78;;;13.04;82.60
47753;BME280;2038;51.728;6.674;2023-04-09T09:54:40;101841.03;;;13.19;83.12
47753;BME280;2038;51.728;6.674;2023-04-09T09:57:09;101838.25;;;13.39;80.81
47753;BME280;2038;51.728;6.674;2023-04-09T09:59:42;101840.34;;;13.45;79.93
47753;BME280;2038;51.728;6.674;2023-04-09T10:02:19;101844.00;;;13.48;80.95
47753;BME280;2038;51.728;6.674;2023-04-09T10:04:49;101843.56;;;13.54;81.79
47753;BME280;2038;51.728;6.674;2023-04-09T10:07:19;101844.66;;;13.57;80.68
47753;BME280;2038;51.728;6.674;2023-04-09T10:09:49;101841.19;;;13.57;80.96
47753;BME280;2038;51.728;6.674;2023-04-09T10:12:20;101834.28;;;13.68;80.14
47753;BME280;2038;51.728;6.674;2023-04-09T10:14:51;101830.78;;;13.79;78.73
47753;BME280;2038;51.728;6.674;2023-04-09T10:17:18;101829.09;;;13.91;79.83
47753;BME280;2038;51.728;6.674;2023-04-09T10:20:00;101828.50;;;13.95;78.10
47753;BME280;2038;51.728;6.674;2023-04-09T10:22:35;101824.59;;;14.00;79.14
47753;BME280;2038;51.728;6.674;2023-04-09T10:25:03;101812.25;;;13.94;81.43
47753;BME280;2038;51.728;6.674;2023-04-09T10:27:31;101821.06;;;13.86;80.76
47753;BME280;2038;51.728;6.674;2023-04-09T10:29:57;101825.09;;;13.83;79.51
47753;BME280;2038;51.728;6.674;2023-04-09T10:32:25;101825.56;;;13.77;77.50
47753;BME280;2038;51.728;6.674;2023-04-09T10:34:56;101819.16;;;13.95;77.05
47753;BME280;2038;51.728;6.674;2023-04-09T10:37:25;101814.63;;;14.04;77.22
47753;BME280;2038;51.728;6.674;2023-04-09T10:39:53;101821.34;;;14.02;76.42
47753;BME280;2038;51.728;6.674;2023-04-09T10:42:23;101813.44;;;13.99;76.07
47753;BME280;2038;51.728;6.674;2023-04-09T10:45:08;101805.91;;;14.14;76.66
47753;BME280;2038;51.728;6.674;2023-04-09T10:47:37;101803.38;;;14.27;76.95
47753;BME280;2038;51.728;6.674;2023-04-09T10:50:16;101800.59;;;14.49;78.15
47753;BME280;2038;51.728;6.674;2023-04-09T10:52:44;101800.44;;;14.59;78.59
47753;BME280;2038;51.728;6.674;2023-04-09T10:58:07;101791.06;;;14.73;74.10
47753;BME280;2038;51.728;6.674;2023-04-09T11:00:40;101799.16;;;14.79;75.51
47753;BME280;2038;51.728;6.674;2023-04-09T11:06:02;101788.72;;;14.76;76.58
47753;BME280;2038;51.728;6.674;2023-04-09T11:08:36;101789.78;;;14.79;77.37
47753;BME280;2038;51.728;6.674;2023-04-09T11:11:03;101780.50;;;14.68;76.25
47753;BME280;2038;51.728;6.674;2023-04-09T11:13:31;101786.81;;;14.60;76.74
47753;BME280;2038;51.728;6.674;2023-04-09T11:15:58;101781.69;;;14.60;76.27
47753;BME280;2038;51.728;6.674;2023-04-09T11:18:27;101786.00;;;14.61;77.04
47753;BME280;2038;51.728;6.674;2023-04-09T11:21:00;101782.28;;;14.69;77.63
47753;BME280;2038;51.728;6.674;2023-04-09T11:23:28;101780.91;;;14.87;75.63
47753;BME280;2038;51.728;6.674;2023-04-09T11:25:54;101774.66;;;15.10;75.08
47753;BME280;2038;51.728;6.674;2023-04-09T11:28:21;101768.63;;;15.23;76.07
47753;BME280;2038;51.728;6.674;2023-04-09T11:30:50;101775.31;;;15.21;73.57
47753;BME280;2038;51.728;6.674;2023-04-09T11:33:17;101771.50;;;15.14;74.81
47753;BME280;2038;51.728;6.674;2023-04-09T11:35:43;101769.34;;;15.07;74.23
47753;BME280;2038;51.728;6.674;2023-04-09T11:38:11;101767.44;;;15.05;75.06
47753;BME280;2038;51.728;6.674;2023-04-09T11:40:40;101769.53;;;14.97;73.97
47753;BME280;2038;51.728;6.674;2023-04-09T11:43:13;101757.00;;;15.02;76.55
47753;BME280;2038;51.728;6.674;2023-04-09T11:45:41;101758.78;;;15.03;74.25
47753;BME280;2038;51.728;6.674;2023-04-09T11:48:08;101758.06;;;15.05;76.30
47753;BME280;2038;51.728;6.674;2023-04-09T11:50:35;101756.38;;;15.19;74.23
47753;BME280;2038;51.728;6.674;2023-04-09T11:53:18;101764.03;;;15.45;77.90
47753;BME280;2038;51.728;6.674;2023-04-09T11:55:48;101767.59;;;15.60;74.35
47753;BME280;2038;51.728;6.674;2023-04-09T11:58:16;101749.34;;;15.70;73.81
47753;BME280;2038;51.728;6.674;2023-04-09T12:00:42;101755.06;;;15.79;72.59
47753;BME280;2038;51.728;6.674;2023-04-09T12:03:09;101751.56;;;15.64;70.85
47753;BME280;2038;51.728;6.674;2023-04-09T12:05:36;101741.31;;;15.51;71.53
47753;BME280;2038;51.728;6.674;2023-04-09T12:08:04;101737.50;;;15.31;71.92
47753;BME280;2038;51.728;6.674;2023-04-09T12:10:34;101742.06;;;15.09;72.14
47753;BME280;2038;51.728;6.674;2023-04-09T12:13:07;101743.72;;;15.22;73.52
47753;BME280;2038;51.728;6.674;2023-04-09T12:15:40;101750.22;;;15.43;74.09
47753;BME280;2038;51.728;6.674;2023-04-09T12:18:10;101742.28;;;15.53;71.10
47753;BME280;2038;51.728;6.674;2023-04-09T12:20:39;101745.22;;;15.72;72.85
47753;BME280;2038;51.728;6.674;2023-04-09T12:23:10;101745.72;;;15.81;70.82
47753;BME280;2038;51.728;6.674;2023-04-09T12:25:40;101746.56;;;15.80;69.40
47753;BME280;2038;51.728;6.674;2023-04-09T12:28:09;101748.88;;;15.63;67.92
47753;BME280;2038;51.728;6.674;2023-04-09T12:30:36;101742.69;;;15.46;68.32
47753;BME280;2038;51.728;6.674;2023-04-09T12:33:03;101747.47;;;15.27;67.71
47753;BME280;2038;51.728;6.674;2023-04-09T12:35:30;101746.00;;;15.17;67.80
47753;BME280;2038;51.728;6.674;2023-04-09T12:37:56;101746.91;;;15.18;69.67
47753;BME280;2038;51.728;6.674;2023-04-09T12:40:24;101745.69;;;15.26;70.56
47753;BME280;2038;51.728;6.674;2023-04-09T12:42:50;101740.94;;;15.32;69.02
47753;BME280;2038;51.728;6.674;2023-04-09T12:45:17;101741.44;;;15.26;69.84
47753;BME280;2038;51.728;6.674;2023-04-09T12:47:45;101746.47;;;15.38;69.14
47753;BME280;2038;51.728;6.674;2023-04-09T12:50:12;101743.28;;;15.55;70.26
47753;BME280;2038;51.728;6.674;2023-04-09T12:52:40;101739.44;;;15.76;67.08
47753;BME280;2038;51.728;6.674;2023-04-09T12:55:07;101731.50;;;16.01;70.45
47753;BME280;2038;51.728;6.674;2023-04-09T12:57:35;101732.84;;;16.24;69.31
47753;BME280;2038;51.728;6.674;2023-04-09T13:00:02;101739.16;;;16.44;68.25
47753;BME280;2038;51.728;6.674;2023-04-09T13:02:32;101734.59;;;16.54;66.81
47753;BME280;2038;51.728;6.674;2023-04-09T13:04:59;101733.66;;;16.67;68.14
47753;BME280;2038;51.728;6.674;2023-04-09T13:07:25;101730.66;;;16.90;69.50
47753;BME280;2038;51.728;6.674;2023-04-09T13:09:54;101730.66;;;16.90;66.38
47753;BME280;2038;51.728;6.674;2023-04-09T13:12:22;101723.84;;;16.91;67.55
47753;BME280;2038;51.728;6.674;2023-04-09T13:14:49;101726.94;;;16.85;68.10